Aeroporto :
LOGIN :

Iscrizione | Disclaimer

   EN    FR    IT 

 










Sommario :    VFR   VFR Marginale   IFR   IFR Intensivo   IFR Molto Intensivo
Visibilità : 
Base nubi : 
>= 8 km
>= 3000ft
5 / 8 km
1000 / 3000 ft
1500m / 5 km
500 / 1000 ft
800 / 1500m
200 / 500 ft
< 800m
< 200 ft
Simboli :   Temporali  Nebbia  Neve Forte  Precipitazioni Forti  Vento > 20 kt
SIGMETs :   Varie  Temporali  Ghiacco  Turbolenza  Onda orograficha  Ceneri Vulcaniche






- Altitudine del aeroporto : 330 ft
- Codice IATA : LVA


LFOV - Laval-Entrammes

ULTIMO METAR :
  • 220500Z AUTO 15007KT 9999 ///TCU 06/05 Q0998

METARs OBSOLETI :
  • 220430Z AUTO 16005KT 140V200 9999 -RA NSC 06/05 Q0999
  • 220400Z AUTO 16005KT 9999 FEW014 SCT060 BKN072 06/05 Q0999
  • 220330Z AUTO 17007KT 9999 BKN037 BKN054 BKN068 06/06 Q0999
  • 220300Z AUTO 16008KT 9999 SCT038/// BKN050/// BKN064/// ///TCU 06/06 Q0999
  • 220230Z AUTO 18008KT 9999 BKN047/// BKN060/// BKN078/// ///TCU 07/06 Q0999

TAF N/A



MetMap, La meteo Aeronautica in un colpo d'occhio ! - Copyright ORBIFLY Dicembre 2007 - Disclaimer

ORBIFLY MET'MAP TEAM :

Programmazione e sviluppo : Alexandra Zaïnal
Concezione e sviluppo : Baudouin d'Aumeries
Co-Programmazione e sviluppo : Marc-Olivier Méhu
Supporto tecnico e logistico : Manuel Goepfert
Aiuto per la traduzione : Arnaldo La Scala

Contatto : metmap@orbifly.com




FONTI E CREDITI :

   NOAA